Time;durP1;ratioP1;P1;durP2;ratioP2;P2;SDS_P1;SDS_P2;PMS_P1;PMS_P2;Temp;Humidity;BMP_temperature;BMP_pressure;BME280_temperature;BME280_humidity;BME280_pressure;Samples;Min_cycle;Max_cycle;Signal;HPM_P1;HPM_P2
2022/04/18 00:02:07;;;;;;;10.20;7.18;;;9.30;71.50;;;;;;4994120;28;20042;-71
2022/04/18 00:04:34;;;;;;;11.43;7.18;;;9.20;71.70;;;;;;4993352;28;20113;-71
2022/04/18 00:07:01;;;;;;;11.63;7.55;;;9.40;71.90;;;;;;4994020;28;20050;-71
2022/04/18 00:09:27;;;;;;;11.98;8.48;;;9.20;71.80;;;;;;4993990;28;20050;-71
2022/04/18 00:11:52;;;;;;;11.60;7.60;;;9.10;71.40;;;;;;4992669;28;20061;-71
2022/04/18 00:14:18;;;;;;;9.70;8.23;;;9.10;71.40;;;;;;4994275;28;20046;-71
2022/04/18 00:16:44;;;;;;;10.05;7.35;;;9.10;71.90;;;;;;4993498;28;20413;-71
2022/04/18 00:19:09;;;;;;;10.68;7.45;;;9.10;72.00;;;;;;4992983;28;20049;-70
2022/04/18 00:21:35;;;;;;;10.65;7.47;;;9.20;72.00;;;;;;4976794;28;20061;-71
2022/04/18 00:24:01;;;;;;;11.13;7.82;;;9.10;71.70;;;;;;4992953;28;20042;-71
2022/04/18 00:26:26;;;;;;;12.95;8.25;;;9.10;72.20;;;;;;4993859;28;20378;-71
2022/04/18 00:28:52;;;;;;;11.40;8.13;;;9.20;72.40;;;;;;4993217;28;20042;-71
2022/04/18 00:31:18;;;;;;;9.52;7.72;;;8.90;72.40;;;;;;4992731;28;20046;-71
2022/04/18 00:33:43;;;;;;;10.48;7.57;;;8.90;72.30;;;;;;4993767;28;20117;-70
2022/04/18 00:36:09;;;;;;;11.45;7.95;;;9.10;72.00;;;;;;4993810;28;20073;-71
2022/04/18 00:38:35;;;;;;;10.73;8.02;;;8.90;72.10;;;;;;4992759;28;20042;-71
2022/04/18 00:41:00;;;;;;;11.43;8.32;;;9.10;72.40;;;;;;4992602;28;20553;-71
2022/04/18 00:43:45;;;;;;;12.20;7.88;;;9.10;72.80;;;;;;4994514;28;20041;-71
2022/04/18 00:46:13;;;;;;;11.60;8.32;;;8.80;72.70;;;;;;4993720;28;20085;-71
2022/04/18 00:48:39;;;;;;;10.85;8.18;;;8.90;72.90;;;;;;4992722;28;20042;-71
2022/04/18 00:51:07;;;;;;;12.13;8.45;;;8.80;72.90;;;;;;4993662;28;20045;-71
2022/04/18 00:53:36;;;;;;;11.43;7.95;;;8.60;73.30;;;;;;4993506;28;20526;-71
2022/04/18 00:56:02;;;;;;;12.57;7.97;;;9.50;73.60;;;;;;4996313;28;20073;-71
2022/04/18 00:58:28;;;;;;;12.70;8.18;;;8.80;73.30;;;;;;4997137;28;20073;-70
2022/04/18 01:00:54;;;;;;;11.25;8.43;;;8.70;73.10;;;;;;4997067;28;20057;-70
2022/04/18 01:03:20;;;;;;;11.98;8.48;;;8.70;73.00;;;;;;4996695;28;20378;-71
2022/04/18 01:05:47;;;;;;;12.18;7.57;;;8.80;73.20;;;;;;4996983;28;20121;-71
2022/04/18 01:08:14;;;;;;;13.50;8.82;;;8.80;73.30;;;;;;4996911;28;20121;-71
2022/04/18 01:10:40;;;;;;;11.13;8.02;;;8.80;73.20;;;;;;4996892;28;20046;-71
2022/04/18 01:13:06;;;;;;;11.95;8.55;;;8.70;74.30;;;;;;4997037;28;20042;-72
2022/04/18 01:15:32;;;;;;;12.35;8.55;;;8.70;74.00;;;;;;4996829;28;20070;-71
2022/04/18 01:17:58;;;;;;;13.77;9.10;;;8.70;74.10;;;;;;4997305;28;20050;-71
2022/04/18 01:20:34;;;;;;;12.90;8.15;;;8.60;73.70;;;;;;4997240;28;20038;-70
2022/04/18 01:23:01;;;;;;;10.82;7.40;;;8.70;73.50;;;;;;4979557;28;20046;-70
2022/04/18 01:30:57;;;;;;;12.32;9.10;;;8.50;74.50;;;;;;4995200;28;20051;-71
2022/04/18 01:33:22;;;;;;;14.15;9.02;;;8.50;74.80;;;;;;4996610;28;20046;-71
2022/04/18 01:35:48;;;;;;;12.20;8.23;;;8.70;75.30;;;;;;4995832;28;20042;-71
2022/04/18 01:38:14;;;;;;;11.93;8.10;;;8.40;75.50;;;;;;4995167;28;20053;-71
2022/04/18 01:40:39;;;;;;;12.93;8.32;;;8.40;75.70;;;;;;4996356;28;20042;-71
2022/04/18 01:43:06;;;;;;;12.45;8.57;;;8.60;76.50;;;;;;4996305;28;20370;-71
2022/04/18 01:45:32;;;;;;;11.98;7.90;;;8.40;76.70;;;;;;4996509;28;20118;-71
2022/04/18 01:47:58;;;;;;;11.48;8.57;;;8.30;77.10;;;;;;4978835;28;20430;-73
2022/04/18 01:50:24;;;;;;;11.52;8.65;;;8.30;77.30;;;;;;4994945;28;20085;-71
2022/04/18 01:52:49;;;;;;;12.95;9.27;;;8.20;77.70;;;;;;4994908;28;20127;-71
2022/04/18 01:55:15;;;;;;;12.88;8.52;;;8.20;78.60;;;;;;4996015;28;20201;-71
2022/04/18 01:57:41;;;;;;;11.00;8.35;;;8.20;79.30;;;;;;4994939;28;20042;-71
2022/04/18 02:00:07;;;;;;;14.30;9.13;;;8.20;79.50;;;;;;4995641;28;20042;-71
2022/04/18 02:02:33;;;;;;;13.27;8.27;;;8.10;79.60;;;;;;4978811;28;20046;-71
2022/04/18 02:05:00;;;;;;;11.07;8.30;;;8.30;80.00;;;;;;4995161;28;20046;-72
2022/04/18 02:07:28;;;;;;;12.43;8.82;;;8.10;80.70;;;;;;4994949;28;20042;-71
2022/04/18 02:09:54;;;;;;;12.35;8.55;;;8.20;80.80;;;;;;4995749;28;20059;-72
2022/04/18 02:12:20;;;;;;;13.50;9.32;;;8.00;80.90;;;;;;4996442;28;20351;-71
2022/04/18 02:14:47;;;;;;;14.27;9.25;;;8.00;81.20;;;;;;4995785;28;20038;-71
2022/04/18 02:17:13;;;;;;;13.13;8.52;;;8.00;81.80;;;;;;4995652;28;20039;-71
2022/04/18 02:19:39;;;;;;;14.90;9.35;;;8.00;82.30;;;;;;4994435;28;20038;-71
2022/04/18 02:22:05;;;;;;;14.90;9.20;;;8.00;82.80;;;;;;4995420;28;20097;-71
2022/04/18 02:24:31;;;;;;;13.40;8.60;;;7.90;83.40;;;;;;4995490;28;20038;-70
2022/04/18 02:26:57;;;;;;;11.65;9.02;;;7.80;83.10;;;;;;4994361;28;20039;-70
2022/04/18 02:29:23;;;;;;;14.80;9.07;;;7.70;84.00;;;;;;4994454;28;20133;-70
2022/04/18 02:34:34;;;;;;;11.75;8.23;;;7.80;83.70;;;;;;4995417;28;20050;-71
2022/04/18 02:37:00;;;;;;;12.90;8.85;;;7.80;84.20;;;;;;4995230;28;20034;-71
2022/04/18 02:39:26;;;;;;;11.88;8.27;;;7.70;85.00;;;;;;4994504;28;20048;-70
2022/04/18 02:41:52;;;;;;;11.45;8.43;;;8.20;85.70;;;;;;4994195;28;20047;-71
2022/04/18 02:44:17;;;;;;;12.75;9.10;;;7.80;85.90;;;;;;4993923;28;20053;-70
2022/04/18 02:46:43;;;;;;;12.23;8.73;;;7.80;86.60;;;;;;4995099;28;20218;-72
2022/04/18 02:49:09;;;;;;;13.38;8.07;;;7.60;86.60;;;;;;4995096;28;20042;-71
2022/04/18 02:51:35;;;;;;;14.38;8.68;;;8.20;87.20;;;;;;4978148;28;20049;-70
2022/04/18 02:54:00;;;;;;;12.05;8.85;;;7.70;87.60;;;;;;4995274;28;20082;-71
2022/04/18 02:56:26;;;;;;;13.40;8.52;;;7.60;87.50;;;;;;4994924;28;20474;-71
2022/04/18 02:58:52;;;;;;;12.98;9.02;;;7.60;87.70;;;;;;4977500;28;20046;-70
2022/04/18 03:01:17;;;;;;;11.57;8.45;;;7.60;88.40;;;;;;4995125;28;20169;-71
2022/04/18 03:03:43;;;;;;;11.45;8.48;;;7.70;88.80;;;;;;4994834;28;20038;-70
2022/04/18 03:06:10;;;;;;;12.85;8.82;;;7.60;88.70;;;;;;4994790;28;20136;-71
2022/04/18 03:08:36;;;;;;;13.07;9.15;;;7.50;88.50;;;;;;4994523;28;20131;-71
2022/04/18 03:11:05;;;;;;;12.07;8.70;;;7.60;89.60;;;;;;4995502;28;20126;-71
2022/04/18 03:13:36;;;;;;;10.98;7.93;;;7.60;89.20;;;;;;4994595;28;20125;-71
2022/04/18 03:16:03;;;;;;;12.00;8.38;;;7.70;89.80;;;;;;4995176;28;20042;-71
2022/04/18 03:18:29;;;;;;;11.27;7.80;;;7.40;90.00;;;;;;4993261;28;20045;-71
2022/04/18 03:20:55;;;;;;;11.60;7.80;;;7.50;90.50;;;;;;4994560;28;20470;-71
2022/04/18 03:23:21;;;;;;;12.85;8.75;;;7.60;90.60;;;;;;4994800;28;20046;-71
2022/04/18 03:25:47;;;;;;;10.45;7.88;;;7.50;90.90;;;;;;4993546;28;20046;-71
2022/04/18 03:28:13;;;;;;;13.15;8.60;;;7.30;90.80;;;;;;4994431;28;20121;-70
2022/04/18 03:30:39;;;;;;;12.30;9.07;;;7.40;90.90;;;;;;4992877;28;20050;-70
2022/04/18 03:33:05;;;;;;;12.38;9.10;;;7.50;91.20;;;;;;4994342;28;20125;-71
2022/04/18 03:35:31;;;;;;;11.80;8.70;;;7.50;91.30;;;;;;4994308;28;20125;-71
2022/04/18 03:40:44;;;;;;;12.38;8.05;;;7.40;91.20;;;;;;4993394;28;20054;-70
2022/04/18 03:43:09;;;;;;;11.48;7.70;;;7.20;91.50;;;;;;4994087;28;20102;-70
2022/04/18 03:45:35;;;;;;;11.38;7.88;;;7.30;91.30;;;;;;4994246;28;20052;-70
2022/04/18 03:48:01;;;;;;;11.93;8.40;;;8.00;91.50;;;;;;4994320;28;20085;-70
2022/04/18 03:50:27;;;;;;;10.60;8.13;;;7.30;91.80;;;;;;4994253;28;20034;-71
2022/04/18 03:52:52;;;;;;;12.95;8.60;;;7.30;91.90;;;;;;4977704;28;20039;-71
2022/04/18 03:55:18;;;;;;;11.52;8.57;;;7.30;92.00;;;;;;4994691;28;20180;-71
2022/04/18 03:57:44;;;;;;;12.05;8.52;;;7.30;92.20;;;;;;4994381;28;20115;-71
2022/04/18 04:00:11;;;;;;;11.35;8.48;;;7.30;92.80;;;;;;4992877;28;20050;-70
2022/04/18 04:02:37;;;;;;;12.35;8.85;;;7.40;92.60;;;;;;4994149;28;20066;-71
2022/04/18 04:05:03;;;;;;;13.20;8.13;;;7.50;92.80;;;;;;4994101;28;20042;-71
2022/04/18 04:07:29;;;;;;;14.73;8.75;;;7.30;92.80;;;;;;4993324;28;20422;-70
2022/04/18 04:09:55;;;;;;;12.07;7.80;;;7.00;93.20;;;;;;4994073;28;20045;-70
2022/04/18 04:12:26;;;;;;;10.80;8.55;;;7.40;93.60;;;;;;4993943;28;20082;-71
2022/04/18 04:14:52;;;;;;;10.80;7.80;;;7.10;93.90;;;;;;4994495;28;20038;-70
2022/04/18 04:17:18;;;;;;;12.18;8.13;;;7.40;94.10;;;;;;4993962;28;20043;-70
2022/04/18 04:19:44;;;;;;;13.75;8.30;;;7.10;94.10;;;;;;4992769;28;20050;-70
2022/04/18 04:22:10;;;;;;;12.18;8.23;;;7.20;94.30;;;;;;4993456;28;20074;-70
2022/04/18 04:24:36;;;;;;;12.15;8.02;;;6.90;94.30;;;;;;4993867;28;20050;-70
2022/04/18 04:27:02;;;;;;;13.07;8.52;;;7.20;94.70;;;;;;4992760;28;20046;-70
2022/04/18 04:29:28;;;;;;;11.93;8.38;;;6.90;94.90;;;;;;4992920;28;20090;-70
2022/04/18 04:31:54;;;;;;;12.98;8.60;;;7.10;95.30;;;;;;4998089;28;20042;-71
2022/04/18 04:34:20;;;;;;;14.50;9.55;;;6.90;95.10;;;;;;4996352;28;20085;-70
2022/04/18 04:36:45;;;;;;;14.13;8.45;;;6.90;95.50;;;;;;4996578;28;20046;-70
2022/04/18 04:39:11;;;;;;;12.93;9.40;;;7.00;95.90;;;;;;4998020;28;20459;-70
2022/04/18 04:41:37;;;;;;;13.93;9.10;;;7.10;96.10;;;;;;4997477;28;20034;-70
2022/04/18 04:44:03;;;;;;;15.32;9.18;;;7.10;96.20;;;;;;4997413;28;20181;-70
2022/04/18 04:46:29;;;;;;;13.70;9.57;;;6.90;96.00;;;;;;4997869;28;20051;-70
2022/04/18 04:48:55;;;;;;;12.32;8.65;;;7.30;96.50;;;;;;4997356;28;20379;-71
2022/04/18 04:51:21;;;;;;;12.48;8.85;;;7.00;96.80;;;;;;4997020;28;20042;-70
2022/04/18 04:53:47;;;;;;;13.57;9.88;;;7.20;97.10;;;;;;4997158;28;20038;-71
2022/04/18 04:56:13;;;;;;;13.55;9.52;;;7.10;97.20;;;;;;4997218;28;20402;-70
2022/04/18 04:58:38;;;;;;;14.93;9.07;;;7.10;97.60;;;;;;4995846;28;20058;-70
2022/04/18 05:01:07;;;;;;;12.90;8.73;;;7.20;97.50;;;;;;4996167;28;20046;-70
2022/04/18 05:03:32;;;;;;;13.38;9.13;;;6.90;97.60;;;;;;4995960;28;20044;-70
2022/04/18 05:05:58;;;;;;;13.35;9.38;;;7.20;98.00;;;;;;4997048;28;20458;-70
2022/04/18 05:08:24;;;;;;;14.25;9.10;;;7.20;98.10;;;;;;4997009;28;20046;-70
2022/04/18 05:10:50;;;;;;;14.20;10.13;;;7.20;98.10;;;;;;4995951;28;20458;-70
2022/04/18 05:13:16;;;;;;;13.13;9.20;;;7.30;98.50;;;;;;4996493;28;20038;-70
2022/04/18 05:15:41;;;;;;;16.15;10.00;;;7.10;98.50;;;;;;4995908;28;20092;-70
2022/04/18 05:18:07;;;;;;;13.77;10.25;;;7.10;98.90;;;;;;4996800;28;20386;-70
2022/04/18 05:20:33;;;;;;;14.52;10.40;;;7.30;99.20;;;;;;4996728;28;20177;-71
2022/04/18 05:22:58;;;;;;;14.30;10.20;;;7.30;99.50;;;;;;4996248;28;20096;-70
2022/04/18 05:25:25;;;;;;;14.95;9.73;;;7.90;99.70;;;;;;4979267;28;20042;-70
2022/04/18 05:27:51;;;;;;;15.48;9.07;;;6.90;99.90;;;;;;4997381;28;20038;-70
2022/04/18 05:30:17;;;;;;;14.02;9.82;;;7.20;99.80;;;;;;4996363;28;20058;-71
2022/04/18 05:32:43;;;;;;;14.27;10.20;;;7.40;99.80;;;;;;4996175;28;20470;-70
2022/04/18 05:35:09;;;;;;;14.50;9.30;;;7.50;99.90;;;;;;4996305;28;20042;-71
2022/04/18 05:37:35;;;;;;;14.65;9.15;;;7.30;99.90;;;;;;4996415;28;20478;-70
2022/04/18 05:40:01;;;;;;;14.73;9.48;;;7.10;99.90;;;;;;4996189;28;20073;-70
2022/04/18 05:42:26;;;;;;;14.38;9.52;;;7.50;99.90;;;;;;4996674;28;20044;-70
2022/04/18 05:44:52;;;;;;;13.40;10.25;;;7.50;99.50;;;;;;4996573;28;20045;-71
2022/04/18 05:47:18;;;;;;;15.40;9.85;;;7.50;99.40;;;;;;4996004;28;20406;-70
2022/04/18 05:49:44;;;;;;;14.85;10.07;;;7.50;99.80;;;;;;4996203;28;20066;-71
2022/04/18 05:52:09;;;;;;;14.00;9.52;;;7.60;99.80;;;;;;4994913;28;20034;-70
2022/04/18 05:54:35;;;;;;;15.48;9.60;;;7.30;99.50;;;;;;4995041;28;20042;-70
2022/04/18 05:57:03;;;;;;;12.88;9.30;;;8.10;99.40;;;;;;4978786;28;20042;-70
2022/04/18 05:59:28;;;;;;;16.13;9.40;;;7.70;98.90;;;;;;4995965;28;20043;-70
2022/04/18 06:01:54;;;;;;;13.50;9.13;;;7.80;98.40;;;;;;4995670;28;20057;-71
2022/04/18 06:04:20;;;;;;;17.15;9.63;;;7.80;98.10;;;;;;4978482;28;20057;-70
2022/04/18 06:06:46;;;;;;;13.75;9.40;;;7.70;97.70;;;;;;4994906;28;20050;-70
2022/04/18 06:09:11;;;;;;;12.98;8.52;;;7.90;97.40;;;;;;4978526;28;20042;-70
2022/04/18 06:11:37;;;;;;;12.93;8.82;;;8.00;97.20;;;;;;4994210;28;20099;-71
2022/04/18 06:14:03;;;;;;;12.55;9.07;;;7.70;97.10;;;;;;4996015;28;20057;-71
2022/04/18 06:16:28;;;;;;;11.05;8.88;;;7.80;97.20;;;;;;4995528;28;20451;-71
2022/04/18 06:18:54;;;;;;;11.93;8.38;;;8.50;97.40;;;;;;4995638;28;20552;-70
2022/04/18 06:21:20;;;;;;;12.80;8.90;;;7.90;97.40;;;;;;4994449;28;20042;-70
2022/04/18 06:23:46;;;;;;;13.23;9.13;;;8.10;97.20;;;;;;4995383;28;20469;-71
2022/04/18 06:26:12;;;;;;;11.02;8.52;;;8.00;97.20;;;;;;4996340;28;20370;-71
2022/04/18 06:28:38;;;;;;;11.85;8.55;;;8.40;97.50;;;;;;4995363;28;20220;-71
2022/04/18 06:31:03;;;;;;;13.52;8.60;;;8.20;97.20;;;;;;4995246;28;20062;-71
2022/04/18 06:33:29;;;;;;;10.65;8.07;;;8.30;97.10;;;;;;4994097;28;20046;-71
2022/04/18 06:35:55;;;;;;;11.98;8.40;;;8.30;97.20;;;;;;4994093;28;20034;-71
2022/04/18 06:38:21;;;;;;;12.38;8.57;;;8.30;97.60;;;;;;4994064;28;20058;-71
2022/04/18 06:40:47;;;;;;;12.20;8.48;;;8.80;97.70;;;;;;4994075;28;20202;-71
2022/04/18 06:43:16;;;;;;;13.20;8.23;;;8.40;97.40;;;;;;4996000;28;20041;-71
2022/04/18 06:45:41;;;;;;;12.05;7.97;;;8.70;98.00;;;;;;4995173;28;20049;-69
2022/04/18 06:48:07;;;;;;;11.07;7.82;;;8.70;97.80;;;;;;4995158;28;20042;-73
2022/04/18 06:50:33;;;;;;;12.15;7.28;;;8.60;97.10;;;;;;4995869;28;20378;-74
2022/04/18 06:52:59;;;;;;;10.13;7.65;;;8.80;97.10;;;;;;4993187;28;20470;-72
2022/04/18 06:55:25;;;;;;;10.15;7.20;;;8.80;97.10;;;;;;4993977;28;20434;-71
2022/04/18 06:57:51;;;;;;;12.43;8.32;;;8.80;96.90;;;;;;4995412;28;20054;-71
2022/04/18 07:00:16;;;;;;;10.98;7.65;;;8.80;96.80;;;;;;4994690;28;20046;-72
2022/04/18 07:02:50;;;;;;;11.32;7.63;;;8.90;96.90;;;;;;4995126;28;20115;-75
2022/04/18 07:05:16;;;;;;;8.95;6.55;;;9.10;97.20;;;;;;4994695;28;20054;-73
2022/04/18 07:07:42;;;;;;;10.02;7.50;;;9.00;96.90;;;;;;4994724;28;20045;-72
2022/04/18 07:10:08;;;;;;;10.07;6.97;;;9.10;96.60;;;;;;4995299;28;20061;-73
2022/04/18 07:12:34;;;;;;;9.88;7.35;;;9.20;96.30;;;;;;4995396;28;20085;-73
2022/04/18 07:15:00;;;;;;;11.00;7.68;;;9.20;96.10;;;;;;4993709;28;20447;-72
2022/04/18 07:17:26;;;;;;;8.88;7.05;;;9.30;96.00;;;;;;4994712;28;20043;-72
2022/04/18 07:19:51;;;;;;;10.23;6.78;;;9.70;95.90;;;;;;4994935;28;20089;-75
2022/04/18 07:22:17;;;;;;;9.07;6.80;;;9.50;95.70;;;;;;4994555;28;20045;-72
2022/04/18 07:24:43;;;;;;;9.88;6.50;;;9.60;95.20;;;;;;4994429;28;20050;-73
2022/04/18 07:27:08;;;;;;;9.98;6.43;;;9.60;94.70;;;;;;4993374;28;20399;-73
2022/04/18 07:29:34;;;;;;;8.73;6.40;;;9.90;94.60;;;;;;4993652;28;20141;-73
2022/04/18 07:32:00;;;;;;;9.68;6.40;;;9.90;94.20;;;;;;4976926;28;20050;-75
2022/04/18 07:34:25;;;;;;;9.60;6.57;;;9.80;93.80;;;;;;4993358;28;20046;-72
2022/04/18 07:36:51;;;;;;;9.82;6.47;;;10.00;93.60;;;;;;4993402;28;20100;-71
2022/04/18 07:39:17;;;;;;;9.13;6.60;;;10.10;93.40;;;;;;4995170;28;20065;-70
2022/04/18 07:41:42;;;;;;;8.07;6.20;;;10.10;93.60;;;;;;4993416;28;20046;-71
2022/04/18 07:44:08;;;;;;;10.07;6.63;;;10.10;93.40;;;;;;4993381;28;20163;-73
2022/04/18 07:46:34;;;;;;;9.13;6.20;;;10.10;93.50;;;;;;4993097;28;20053;-73
2022/04/18 07:49:00;;;;;;;9.02;6.28;;;10.30;93.40;;;;;;4994246;28;20049;-71
2022/04/18 07:51:31;;;;;;;9.20;6.47;;;10.40;93.00;;;;;;4994198;28;20069;-71
2022/04/18 07:53:58;;;;;;;8.07;6.10;;;10.40;91.90;;;;;;4995039;28;20043;-71
2022/04/18 07:56:25;;;;;;;9.70;5.95;;;10.40;91.90;;;;;;4994188;28;20507;-75
2022/04/18 07:58:51;;;;;;;6.25;5.63;;;10.50;91.60;;;;;;4993241;28;20497;-74
2022/04/18 08:01:18;;;;;;;6.78;5.22;;;10.60;91.50;;;;;;4994421;28;20394;-74
2022/04/18 08:03:44;;;;;;;8.23;4.82;;;10.60;91.30;;;;;;4995029;28;20050;-72
2022/04/18 08:06:10;;;;;;;6.60;4.75;;;10.70;90.70;;;;;;4998943;28;20049;-71
2022/04/18 08:08:36;;;;;;;8.05;4.78;;;10.90;90.30;;;;;;4998118;28;20483;-71
2022/04/18 08:11:02;;;;;;;6.38;4.65;;;10.90;89.50;;;;;;4997284;28;20101;-71
2022/04/18 08:13:28;;;;;;;6.43;4.90;;;11.00;88.60;;;;;;4997923;28;20038;-71
2022/04/18 08:15:54;;;;;;;7.63;5.50;;;11.10;88.60;;;;;;4996799;28;20133;-70
2022/04/18 08:18:20;;;;;;;8.55;5.05;;;11.10;87.20;;;;;;4997020;28;20057;-71
2022/04/18 08:20:45;;;;;;;7.28;5.07;;;11.20;85.80;;;;;;4980989;28;20101;-71
2022/04/18 08:23:11;;;;;;;8.57;5.13;;;11.40;86.30;;;;;;4997875;28;20046;-71
2022/04/18 08:25:37;;;;;;;6.88;5.15;;;11.30;85.30;;;;;;4997844;28;20046;-72
2022/04/18 08:28:03;;;;;;;8.95;5.35;;;11.40;85.10;;;;;;4996747;28;20053;-72
2022/04/18 08:30:29;;;;;;;7.82;5.07;;;11.50;84.40;;;;;;4997877;28;20111;-72
2022/04/18 08:32:55;;;;;;;7.63;5.47;;;11.50;84.50;;;;;;4964223;28;20054;-72
2022/04/18 08:35:21;;;;;;;7.63;5.45;;;11.50;83.80;;;;;;4997644;28;20050;-71
2022/04/18 08:37:48;;;;;;;7.95;5.00;;;11.70;84.20;;;;;;4997616;28;20062;-72
2022/04/18 08:40:14;;;;;;;8.38;4.63;;;11.70;83.00;;;;;;4997579;28;20046;-72
2022/04/18 08:42:41;;;;;;;6.93;4.95;;;11.80;82.60;;;;;;4998351;28;20039;-77
2022/04/18 08:45:12;;;;;;;6.93;4.47;;;11.80;82.20;;;;;;4980486;28;20430;-72
2022/04/18 08:53:11;;;;;;;5.50;4.18;;;12.10;80.10;;;;;;4997276;28;20046;-72
2022/04/18 08:55:37;;;;;;;6.32;4.00;;;12.10;79.00;;;;;;4997288;28;20065;-74
2022/04/18 08:58:04;;;;;;;7.47;5.05;;;12.20;79.00;;;;;;4996896;28;20368;-74
2022/04/18 09:00:30;;;;;;;6.05;4.82;;;12.20;78.70;;;;;;4995579;28;20504;-74
2022/04/18 09:02:56;;;;;;;6.00;4.15;;;12.30;78.20;;;;;;4996260;28;20082;-71
2022/04/18 09:05:22;;;;;;;6.30;4.50;;;12.30;78.50;;;;;;4996857;28;20398;-72
2022/04/18 09:08:01;;;;;;;5.88;4.50;;;12.30;78.40;;;;;;4996471;28;20046;-71
2022/04/18 09:10:27;;;;;;;6.78;4.80;;;12.40;78.40;;;;;;4996366;28;20050;-70
2022/04/18 09:12:53;;;;;;;6.07;4.47;;;12.50;77.90;;;;;;4996545;28;20494;-71
2022/04/18 09:15:39;;;;;;;6.97;4.82;;;12.60;77.50;;;;;;4995596;28;20046;-70
2022/04/18 09:18:17;;;;;;;6.28;4.38;;;12.60;77.80;;;;;;4996447;28;20390;-70
2022/04/18 09:20:43;;;;;;;5.70;4.38;;;12.70;77.20;;;;;;4996148;28;20058;-69
2022/04/18 09:23:39;;;;;;;6.00;4.55;;;12.80;76.50;;;;;;4996823;28;20053;-70
2022/04/18 09:26:08;;;;;;;5.78;4.10;;;12.90;76.90;;;;;;4963380;28;20061;-69
2022/04/18 09:28:33;;;;;;;7.35;4.78;;;12.90;76.10;;;;;;4996217;28;20065;-71
2022/04/18 09:31:05;;;;;;;5.53;3.83;;;13.00;75.90;;;;;;4996556;28;20062;-71
2022/04/18 09:33:39;;;;;;;6.55;4.32;;;13.00;75.60;;;;;;4994792;28;20061;-73
2022/04/18 09:36:13;;;;;;;6.65;4.15;;;13.10;75.10;;;;;;4995684;28;20053;-72
2022/04/18 09:38:47;;;;;;;7.10;4.93;;;13.20;75.20;;;;;;4995302;28;20371;-71
2022/04/18 09:41:15;;;;;;;5.53;4.05;;;13.30;75.20;;;;;;4995534;28;20060;-73
2022/04/18 09:43:44;;;;;;;6.43;4.70;;;13.30;74.70;;;;;;4996026;28;20073;-73
2022/04/18 09:46:10;;;;;;;6.00;4.22;;;13.40;74.40;;;;;;4995084;28;20042;-73
2022/04/18 09:48:36;;;;;;;4.72;3.92;;;13.40;74.00;;;;;;4996235;28;20533;-72
2022/04/18 09:51:13;;;;;;;6.57;3.90;;;13.50;74.00;;;;;;4996319;28;20442;-73
2022/04/18 09:53:41;;;;;;;4.60;3.95;;;13.60;73.40;;;;;;4996737;28;20089;-72
2022/04/18 09:56:08;;;;;;;6.63;4.43;;;13.70;73.10;;;;;;4995195;28;20050;-72
2022/04/18 09:58:35;;;;;;;6.43;4.07;;;13.70;72.90;;;;;;4995050;28;20054;-72
2022/04/18 10:01:05;;;;;;;6.30;4.40;;;13.80;72.60;;;;;;4995963;28;20042;-72
2022/04/18 10:03:32;;;;;;;6.22;3.72;;;13.90;71.90;;;;;;4996030;28;20038;-71
2022/04/18 10:05:59;;;;;;;4.90;4.03;;;14.00;71.70;;;;;;4996018;28;20097;-73
2022/04/18 10:08:25;;;;;;;4.90;4.22;;;14.10;71.20;;;;;;4995492;28;20060;-75
2022/04/18 10:10:52;;;;;;;5.40;4.38;;;14.10;71.00;;;;;;4996428;28;20042;-74
2022/04/18 10:13:20;;;;;;;5.10;3.70;;;14.20;70.40;;;;;;4995748;28;20047;-74
2022/04/18 10:15:48;;;;;;;5.32;4.18;;;14.20;70.00;;;;;;4995822;28;20047;-75
2022/04/18 10:18:15;;;;;;;5.68;3.80;;;14.30;69.40;;;;;;4995778;28;20050;-74
2022/04/18 10:21:06;;;;;;;7.15;4.38;;;14.30;69.00;;;;;;4994710;28;20050;-72
2022/04/18 10:23:55;;;;;;;5.43;4.10;;;14.40;68.90;;;;;;4994952;28;20390;-72
2022/04/18 10:26:50;;;;;;;4.28;3.33;;;14.50;68.80;;;;;;4994769;28;20065;-73
2022/04/18 10:29:32;;;;;;;4.88;3.42;;;14.60;68.00;;;;;;4993984;28;20548;-71
2022/04/18 10:32:03;;;;;;;4.63;3.45;;;14.60;67.50;;;;;;4995996;28;20090;-75
2022/04/18 10:34:31;;;;;;;4.50;3.38;;;14.70;66.40;;;;;;4994521;28;20050;-73
2022/04/18 10:37:01;;;;;;;4.32;3.38;;;14.70;65.70;;;;;;4995413;28;20054;-72
2022/04/18 10:39:38;;;;;;;4.85;3.00;;;14.80;65.80;;;;;;4995380;28;20042;-72
2022/04/18 10:42:28;;;;;;;5.47;3.60;;;14.80;66.20;;;;;;4995657;28;20129;-72
2022/04/18 10:45:14;;;;;;;4.28;3.83;;;14.90;66.40;;;;;;4977928;28;20553;-72
2022/04/18 10:47:55;;;;;;;4.63;3.42;;;15.00;66.10;;;;;;4994001;28;20046;-73
2022/04/18 10:50:47;;;;;;;4.68;3.33;;;15.00;65.80;;;;;;5166255;27;826887;-72
2022/04/18 10:53:14;;;;;;;5.72;3.97;;;15.00;64.70;;;;;;5194787;27;20041;-73
2022/04/18 10:56:02;;;;;;;4.60;3.17;;;15.10;63.70;;;;;;5175846;27;20085;-73
2022/04/18 10:58:37;;;;;;;5.05;3.38;;;15.10;63.00;;;;;;5167278;27;20137;-73
2022/04/18 11:01:07;;;;;;;3.28;2.80;;;15.20;63.00;;;;;;5175899;27;20046;-72
2022/04/18 11:03:43;;;;;;;6.28;3.75;;;15.30;62.40;;;;;;5175507;27;20042;-72
2022/04/18 11:06:15;;;;;;;4.28;3.50;;;15.30;62.20;;;;;;5175444;27;20045;-75
2022/04/18 11:08:41;;;;;;;4.35;3.72;;;15.30;62.00;;;;;;5175414;27;20042;-82
2022/04/18 11:11:16;;;;;;;4.07;3.22;;;15.40;62.30;;;;;;5175331;27;20401;-75
2022/04/18 11:13:50;;;;;;;4.53;3.58;;;15.40;63.20;;;;;;5194146;27;20045;-76
2022/04/18 11:16:22;;;;;;;4.63;3.72;;;15.50;63.40;;;;;;5193890;27;20046;-74
2022/04/18 11:19:07;;;;;;;4.70;3.30;;;15.50;62.40;;;;;;5193823;27;20038;-74
2022/04/18 11:21:57;;;;;;;4.95;3.20;;;15.50;62.10;;;;;;5193921;27;20102;-78
2022/04/18 11:24:34;;;;;;;6.88;3.78;;;15.50;61.30;;;;;;5180197;27;20111;-72
2022/04/18 11:27:00;;;;;;;3.95;3.25;;;15.50;60.60;;;;;;5158128;27;20064;-73
2022/04/18 11:29:29;;;;;;;3.55;3.00;;;15.70;60.80;;;;;;5174475;27;20042;-72
2022/04/18 11:31:55;;;;;;;4.13;3.20;;;15.70;60.20;;;;;;5193647;27;20046;-75
2022/04/18 11:34:28;;;;;;;3.80;3.40;;;15.70;60.20;;;;;;5193832;27;20069;-74
2022/04/18 11:36:58;;;;;;;;;;;15.80;59.50;;;;;;5175456;27;20046;-71
2022/04/18 11:39:24;;;;;;;3.83;2.92;;;15.80;60.80;;;;;;5193763;27;19941;-71
2022/04/18 11:42:01;;;;;;;3.47;3.13;;;15.90;59.50;;;;;;5174560;27;20481;-75
2022/04/18 11:44:27;;;;;;;4.20;3.20;;;15.90;59.40;;;;;;5193341;27;20046;-78
2022/04/18 11:46:54;;;;;;;3.78;3.35;;;16.00;58.20;;;;;;5157491;27;20065;-82
2022/04/18 11:49:26;;;;;;;3.72;3.15;;;16.00;58.20;;;;;;5174526;27;20058;-82
2022/04/18 11:51:53;;;;;;;4.00;3.00;;;16.10;58.20;;;;;;5193347;27;20507;-83
2022/04/18 11:54:19;;;;;;;4.28;3.80;;;16.10;57.30;;;;;;5157674;27;20409;-81
2022/04/18 11:56:59;;;;;;;4.82;3.28;;;16.20;56.60;;;;;;5174281;27;20042;-81
2022/04/18 11:59:29;;;;;;;3.05;2.75;;;16.20;57.00;;;;;;5193237;27;20045;-82
2022/04/18 12:07:30;;;;;;;3.75;3.33;;;16.30;56.60;;;;;;5160945;27;20052;-80
2022/04/18 12:09:55;;;;;;;4.70;2.97;;;16.30;55.10;;;;;;5178973;27;20042;-80
2022/04/18 12:12:28;;;;;;;4.55;3.08;;;16.30;55.50;;;;;;5178915;27;20183;-78
2022/04/18 12:14:59;;;;;;;4.10;3.25;;;16.40;55.70;;;;;;5160113;27;20039;-80
2022/04/18 12:17:25;;;;;;;4.65;3.47;;;16.50;54.80;;;;;;5160542;27;20057;-79
2022/04/18 12:19:52;;;;;;;4.47;3.13;;;16.50;54.60;;;;;;5160243;27;20054;-81
2022/04/18 12:22:22;;;;;;;3.78;3.00;;;16.50;54.10;;;;;;5178715;27;20046;-79
2022/04/18 12:24:48;;;;;;;5.85;3.17;;;16.50;54.70;;;;;;5160095;27;20153;-76
2022/04/18 12:27:16;;;;;;;4.35;3.22;;;16.60;55.30;;;;;;5143110;27;20110;-77
2022/04/18 12:29:45;;;;;;;3.58;2.95;;;16.60;54.30;;;;;;5159445;27;20160;-79
2022/04/18 12:32:35;;;;;;;4.28;3.28;;;16.70;54.20;;;;;;5178408;27;20042;-81
2022/04/18 12:35:01;;;;;;;4.55;3.53;;;16.70;55.10;;;;;;5178838;27;20109;-78
2022/04/18 12:37:27;;;;;;;4.25;3.25;;;16.90;54.60;;;;;;5165696;27;20462;-81
2022/04/18 12:40:12;;;;;;;3.97;2.92;;;16.90;53.60;;;;;;5156432;27;20043;-79
2022/04/18 12:42:38;;;;;;;5.13;3.45;;;16.90;53.70;;;;;;5138713;27;20047;-79
2022/04/18 12:45:04;;;;;;;3.53;2.88;;;16.90;53.20;;;;;;5138068;27;20057;-79
2022/04/18 12:47:32;;;;;;;3.58;3.10;;;17.00;54.00;;;;;;5121410;27;20459;-80
2022/04/18 12:50:13;;;;;;;5.10;3.22;;;17.10;53.90;;;;;;5134907;27;20093;-80
2022/04/18 12:52:51;;;;;;;3.50;3.20;;;17.20;53.90;;;;;;5118370;27;20510;-80
2022/04/18 12:55:26;;;;;;;5.93;3.58;;;17.20;53.30;;;;;;5135395;27;20047;-82
2022/04/18 12:57:51;;;;;;;4.20;3.50;;;17.20;52.40;;;;;;5136166;27;20046;-81
2022/04/18 13:00:17;;;;;;;3.90;3.10;;;17.20;52.60;;;;;;5134326;27;20043;-82
2022/04/18 13:03:04;;;;;;;4.22;2.80;;;17.20;52.40;;;;;;5117253;27;20054;-83
2022/04/18 13:05:40;;;;;;;3.88;2.92;;;17.20;52.20;;;;;;5135169;27;20047;-83
2022/04/18 13:08:07;;;;;;;3.03;2.58;;;17.30;51.90;;;;;;5101997;27;20043;-83
2022/04/18 13:10:35;;;;;;;4.10;2.90;;;17.30;51.80;;;;;;5135185;27;20440;-81
2022/04/18 13:13:21;;;;;;;3.08;2.40;;;17.30;51.20;;;;;;5134036;27;20104;-82
2022/04/18 13:15:48;;;;;;;3.90;2.88;;;17.30;52.00;;;;;;5134184;27;20414;-80